メインページ
METAR-TAF:

METAR-TAF

空港 :

High Level, アルバータ州, カナダ

緯度: 58-37N, 経度: 117-10W, 海抜: 338m

現時点の気象観測

当レポートは1時間10分前の04:00(UTC)に作成
の風 13kt、最大21ktの突風を伴う
気温 16°C
湿度 51%
気圧 1017 hPa
視程: 14.5km
晴天

METAR: CYOJ 220400Z AUTO 36013G21KT 9SM CLR 16/06 A3002 RMK SLP177 DENSITY ALT 1300FT

時間: 23:10 (05:10 UTC)

予報

当レポートは4時間32分前の00:38(UTC)に作成
予報は22日の 01時(UTC)から 22日の 13時(UTC)まで有効
の風 8kt
視程: 10km
高度10000ftの雲はほとんどない
22日の 03時(UTC)から 22日の 05時(UTC)まで徐々に
北/北東の風 8kt
22日の 0900時(UTC)から
の風 6kt
視程: 10km
高度10000ftの雲はほとんどない
22日の 10時(UTC)から 22日の 13時(UTC)まで一時的に
視程: 8.0km
煙, 煙霧

TAF: CYOJ 220038Z 2201/2213 09008KT P6SM FEW100 BECMG 2203/2205 02008KT FM220900 36006KT P6SM FEW100 TEMPO 2210/2213 5SM FU HZ RMK NXT FCST BY 220700Z

4,000以上の空港の気象観測と天気予報(METAR報とTAF報)

利用可能な観測所は地図上に黄色い丸と赤い丸で示す。

丸の上にカーソルを重ねると観測所名を参照できる。

次にクリックすると気象観測と天気予報を参照できる。

マップの切り替え:黒色「×」印の緑ボタンをクリックして拡大、「-」印の緑ボタンをクリックして縮小、緑色の三角印をクリックして隣りの地図に切り替え


METAR-TAF: